sensor_id;sensor_type;location;lat;lon;timestamp;pressure;altitude;pressure_sealevel;temperature
80537;BMP280;69867;47.074;15.404;2023-07-31T00:00:22;97344.53;;;18.94
80537;BMP280;69867;47.074;15.404;2023-07-31T00:02:47;97336.72;;;18.92
80537;BMP280;69867;47.074;15.404;2023-07-31T00:05:12;97341.97;;;18.92
80537;BMP280;69867;47.074;15.404;2023-07-31T00:07:38;97331.34;;;18.94
80537;BMP280;69867;47.074;15.404;2023-07-31T00:10:03;97329.09;;;18.88
80537;BMP280;69867;47.074;15.404;2023-07-31T00:12:29;97327.78;;;18.80
80537;BMP280;69867;47.074;15.404;2023-07-31T00:14:54;97329.66;;;18.78
80537;BMP280;69867;47.074;15.404;2023-07-31T00:17:19;97329.00;;;18.75
80537;BMP280;69867;47.074;15.404;2023-07-31T00:19:45;97333.59;;;18.71
80537;BMP280;69867;47.074;15.404;2023-07-31T00:22:10;97332.56;;;18.74
80537;BMP280;69867;47.074;15.404;2023-07-31T00:24:35;97325.50;;;18.74
80537;BMP280;69867;47.074;15.404;2023-07-31T00:27:01;97318.75;;;18.70
80537;BMP280;69867;47.074;15.404;2023-07-31T00:29:26;97317.31;;;18.65
80537;BMP280;69867;47.074;15.404;2023-07-31T00:31:51;97320.78;;;18.65
80537;BMP280;69867;47.074;15.404;2023-07-31T00:34:17;97320.72;;;18.67
80537;BMP280;69867;47.074;15.404;2023-07-31T00:36:42;97332.25;;;18.64
80537;BMP280;69867;47.074;15.404;2023-07-31T00:39:07;97334.13;;;18.62
80537;BMP280;69867;47.074;15.404;2023-07-31T00:41:33;97330.72;;;18.60
80537;BMP280;69867;47.074;15.404;2023-07-31T00:43:58;97335.22;;;18.58
80537;BMP280;69867;47.074;15.404;2023-07-31T00:46:23;97337.19;;;18.54
80537;BMP280;69867;47.074;15.404;2023-07-31T00:48:49;97333.72;;;18.54
80537;BMP280;69867;47.074;15.404;2023-07-31T00:51:14;97323.75;;;18.45
80537;BMP280;69867;47.074;15.404;2023-07-31T00:53:40;97319.22;;;18.47
80537;BMP280;69867;47.074;15.404;2023-07-31T00:56:06;97320.16;;;18.46
80537;BMP280;69867;47.074;15.404;2023-07-31T00:58:31;97318.75;;;18.40
80537;BMP280;69867;47.074;15.404;2023-07-31T01:00:57;97323.53;;;18.34
80537;BMP280;69867;47.074;15.404;2023-07-31T01:03:22;97324.72;;;18.28
80537;BMP280;69867;47.074;15.404;2023-07-31T01:06:09;97326.88;;;18.21
80537;BMP280;69867;47.074;15.404;2023-07-31T01:09:03;97326.16;;;18.18
80537;BMP280;69867;47.074;15.404;2023-07-31T01:11:53;97327.00;;;18.18
80537;BMP280;69867;47.074;15.404;2023-07-31T01:14:21;97327.09;;;18.17
80537;BMP280;69867;47.074;15.404;2023-07-31T01:16:46;97328.78;;;18.18
80537;BMP280;69867;47.074;15.404;2023-07-31T01:19:14;97325.59;;;18.13
80537;BMP280;69867;47.074;15.404;2023-07-31T01:27:16;97325.25;;;18.03
80537;BMP280;69867;47.074;15.404;2023-07-31T01:30:03;97330.34;;;18.06
80537;BMP280;69867;47.074;15.404;2023-07-31T01:32:30;97323.22;;;18.08
80537;BMP280;69867;47.074;15.404;2023-07-31T01:34:58;97326.97;;;18.04
80537;BMP280;69867;47.074;15.404;2023-07-31T01:37:30;97330.69;;;18.00
80537;BMP280;69867;47.074;15.404;2023-07-31T01:39:55;97334.44;;;17.96
80537;BMP280;69867;47.074;15.404;2023-07-31T01:42:21;97325.97;;;17.91
80537;BMP280;69867;47.074;15.404;2023-07-31T01:44:46;97335.72;;;17.89
80537;BMP280;69867;47.074;15.404;2023-07-31T01:47:11;97334.03;;;17.88
80537;BMP280;69867;47.074;15.404;2023-07-31T01:49:37;97327.06;;;17.87
80537;BMP280;69867;47.074;15.404;2023-07-31T01:52:02;97330.81;;;17.83
80537;BMP280;69867;47.074;15.404;2023-07-31T01:54:28;97331.75;;;17.82
80537;BMP280;69867;47.074;15.404;2023-07-31T01:56:53;97327.50;;;17.79
80537;BMP280;69867;47.074;15.404;2023-07-31T01:59:18;97332.75;;;17.79
80537;BMP280;69867;47.074;15.404;2023-07-31T02:01:44;97323.34;;;17.75
80537;BMP280;69867;47.074;15.404;2023-07-31T02:04:09;97319.88;;;17.75
80537;BMP280;69867;47.074;15.404;2023-07-31T02:06:34;97320.22;;;17.69
80537;BMP280;69867;47.074;15.404;2023-07-31T02:09:00;97329.34;;;17.62
80537;BMP280;69867;47.074;15.404;2023-07-31T02:11:25;97327.66;;;17.60
80537;BMP280;69867;47.074;15.404;2023-07-31T02:13:50;97332.16;;;17.58
80537;BMP280;69867;47.074;15.404;2023-07-31T02:16:16;97334.09;;;17.55
80537;BMP280;69867;47.074;15.404;2023-07-31T02:18:41;97344.69;;;17.53
80537;BMP280;69867;47.074;15.404;2023-07-31T02:21:06;97344.78;;;17.52
80537;BMP280;69867;47.074;15.404;2023-07-31T02:23:32;97343.94;;;17.51
80537;BMP280;69867;47.074;15.404;2023-07-31T02:25:57;97342.06;;;17.53
80537;BMP280;69867;47.074;15.404;2023-07-31T02:28:22;97346.22;;;17.57
80537;BMP280;69867;47.074;15.404;2023-07-31T02:30:50;97350.72;;;17.55
80537;BMP280;69867;47.074;15.404;2023-07-31T02:33:15;97343.84;;;17.53
80537;BMP280;69867;47.074;15.404;2023-07-31T02:35:40;97348.34;;;17.51
80537;BMP280;69867;47.074;15.404;2023-07-31T02:38:06;97346.22;;;17.57
80537;BMP280;69867;47.074;15.404;2023-07-31T02:40:31;97352.50;;;17.55
80537;BMP280;69867;47.074;15.404;2023-07-31T02:42:56;97353.34;;;17.55
80537;BMP280;69867;47.074;15.404;2023-07-31T02:45:21;97355.13;;;17.55
80537;BMP280;69867;47.074;15.404;2023-07-31T02:47:47;97359.69;;;17.51
80537;BMP280;69867;47.074;15.404;2023-07-31T02:50:12;97359.34;;;17.57
80537;BMP280;69867;47.074;15.404;2023-07-31T02:52:37;97360.88;;;17.62
80537;BMP280;69867;47.074;15.404;2023-07-31T02:55:03;97357.66;;;17.56
80537;BMP280;69867;47.074;15.404;2023-07-31T02:57:28;97353.34;;;17.55
80537;BMP280;69867;47.074;15.404;2023-07-31T02:59:54;97359.00;;;17.64
80537;BMP280;69867;47.074;15.404;2023-07-31T03:02:19;97349.69;;;17.58
80537;BMP280;69867;47.074;15.404;2023-07-31T03:04:44;97352.22;;;17.59
80537;BMP280;69867;47.074;15.404;2023-07-31T03:07:10;97357.31;;;17.63
80537;BMP280;69867;47.074;15.404;2023-07-31T03:09:35;97355.97;;;17.55
80537;BMP280;69867;47.074;15.404;2023-07-31T03:12:00;97351.81;;;17.51
80537;BMP280;69867;47.074;15.404;2023-07-31T03:14:26;97359.00;;;17.48
80537;BMP280;69867;47.074;15.404;2023-07-31T03:16:51;97353.31;;;17.40
80537;BMP280;69867;47.074;15.404;2023-07-31T03:19:16;97354.59;;;17.33
80537;BMP280;69867;47.074;15.404;2023-07-31T03:21:42;97353.06;;;17.28
80537;BMP280;69867;47.074;15.404;2023-07-31T03:24:07;97364.75;;;17.23
80537;BMP280;69867;47.074;15.404;2023-07-31T03:26:32;97360.81;;;17.14
80537;BMP280;69867;47.074;15.404;2023-07-31T03:28:58;97370.47;;;17.14
80537;BMP280;69867;47.074;15.404;2023-07-31T03:31:23;97371.56;;;17.10
80537;BMP280;69867;47.074;15.404;2023-07-31T03:33:49;97367.34;;;17.07
80537;BMP280;69867;47.074;15.404;2023-07-31T03:36:14;97372.50;;;17.09
80537;BMP280;69867;47.074;15.404;2023-07-31T03:38:40;97373.59;;;17.05
80537;BMP280;69867;47.074;15.404;2023-07-31T03:41:05;97380.78;;;17.01
80537;BMP280;69867;47.074;15.404;2023-07-31T03:43:30;97376.38;;;17.02
80537;BMP280;69867;47.074;15.404;2023-07-31T03:45:56;97367.75;;;17.00
80537;BMP280;69867;47.074;15.404;2023-07-31T03:48:21;97370.53;;;16.97
80537;BMP280;69867;47.074;15.404;2023-07-31T03:50:46;97370.53;;;16.97
80537;BMP280;69867;47.074;15.404;2023-07-31T03:53:12;97380.94;;;16.98
80537;BMP280;69867;47.074;15.404;2023-07-31T03:55:37;97380.09;;;16.98
80537;BMP280;69867;47.074;15.404;2023-07-31T03:58:02;97381.03;;;16.97
80537;BMP280;69867;47.074;15.404;2023-07-31T04:00:28;97377.78;;;16.91
80537;BMP280;69867;47.074;15.404;2023-07-31T04:02:53;97374.16;;;16.94
80537;BMP280;69867;47.074;15.404;2023-07-31T04:05:18;97377.16;;;16.86
80537;BMP280;69867;47.074;15.404;2023-07-31T04:07:44;97377.91;;;16.88
80537;BMP280;69867;47.074;15.404;2023-07-31T04:10:09;97384.41;;;16.99
80537;BMP280;69867;47.074;15.404;2023-07-31T04:12:35;97383.66;;;16.97
80537;BMP280;69867;47.074;15.404;2023-07-31T04:15:00;97383.16;;;17.06
80537;BMP280;69867;47.074;15.404;2023-07-31T04:17:25;97375.88;;;17.11
80537;BMP280;69867;47.074;15.404;2023-07-31T04:19:51;97379.28;;;17.13
80537;BMP280;69867;47.074;15.404;2023-07-31T04:22:16;97375.66;;;17.15
80537;BMP280;69867;47.074;15.404;2023-07-31T04:24:41;97378.03;;;17.20
80537;BMP280;69867;47.074;15.404;2023-07-31T04:27:06;97384.50;;;17.30
80537;BMP280;69867;47.074;15.404;2023-07-31T04:29:32;97373.50;;;17.39
80537;BMP280;69867;47.074;15.404;2023-07-31T04:31:57;97374.09;;;17.44
80537;BMP280;69867;47.074;15.404;2023-07-31T04:34:22;97381.13;;;17.44
80537;BMP280;69867;47.074;15.404;2023-07-31T04:36:48;97382.50;;;17.51
80537;BMP280;69867;47.074;15.404;2023-07-31T04:39:13;97381.31;;;17.56
80537;BMP280;69867;47.074;15.404;2023-07-31T04:41:38;97381.06;;;17.61
80537;BMP280;69867;47.074;15.404;2023-07-31T04:44:04;97390.25;;;17.70
80537;BMP280;69867;47.074;15.404;2023-07-31T04:46:29;97386.34;;;17.77
80537;BMP280;69867;47.074;15.404;2023-07-31T04:48:55;97388.47;;;17.86
80537;BMP280;69867;47.074;15.404;2023-07-31T04:51:20;97382.59;;;18.12
80537;BMP280;69867;47.074;15.404;2023-07-31T04:53:45;97381.94;;;18.54
80537;BMP280;69867;47.074;15.404;2023-07-31T04:56:11;97374.34;;;19.37
80537;BMP280;69867;47.074;15.404;2023-07-31T04:58:36;97374.06;;;19.84
80537;BMP280;69867;47.074;15.404;2023-07-31T05:01:01;97366.34;;;20.35
80537;BMP280;69867;47.074;15.404;2023-07-31T05:03:27;97369.22;;;20.84
80537;BMP280;69867;47.074;15.404;2023-07-31T05:05:52;97365.25;;;21.29
80537;BMP280;69867;47.074;15.404;2023-07-31T05:08:17;97372.13;;;21.81
80537;BMP280;69867;47.074;15.404;2023-07-31T05:10:43;97363.53;;;22.27
80537;BMP280;69867;47.074;15.404;2023-07-31T05:13:08;97366.31;;;22.60
80537;BMP280;69867;47.074;15.404;2023-07-31T05:15:34;97370.41;;;22.99
80537;BMP280;69867;47.074;15.404;2023-07-31T05:17:59;97376.66;;;22.87
80537;BMP280;69867;47.074;15.404;2023-07-31T05:20:24;97382.75;;;22.77
80537;BMP280;69867;47.074;15.404;2023-07-31T05:22:50;97374.66;;;23.36
80537;BMP280;69867;47.074;15.404;2023-07-31T05:25:16;97382.41;;;23.83
80537;BMP280;69867;47.074;15.404;2023-07-31T05:27:41;97383.66;;;24.34
80537;BMP280;69867;47.074;15.404;2023-07-31T05:30:07;97379.94;;;24.89
80537;BMP280;69867;47.074;15.404;2023-07-31T05:32:33;97375.13;;;25.55
80537;BMP280;69867;47.074;15.404;2023-07-31T05:34:58;97373.72;;;25.51
80537;BMP280;69867;47.074;15.404;2023-07-31T05:37:24;97375.94;;;26.26
80537;BMP280;69867;47.074;15.404;2023-07-31T05:39:49;97381.47;;;26.63
80537;BMP280;69867;47.074;15.404;2023-07-31T05:42:14;97370.66;;;26.84
80537;BMP280;69867;47.074;15.404;2023-07-31T05:44:40;97375.69;;;26.87
80537;BMP280;69867;47.074;15.404;2023-07-31T05:47:05;97379.31;;;26.28
80537;BMP280;69867;47.074;15.404;2023-07-31T05:49:30;97383.44;;;26.71
80537;BMP280;69867;47.074;15.404;2023-07-31T05:51:56;97384.69;;;26.48
80537;BMP280;69867;47.074;15.404;2023-07-31T05:54:21;97386.50;;;26.76
80537;BMP280;69867;47.074;15.404;2023-07-31T05:56:47;97383.69;;;26.87
80537;BMP280;69867;47.074;15.404;2023-07-31T05:59:12;97379.34;;;27.05
80537;BMP280;69867;47.074;15.404;2023-07-31T06:01:38;97388.34;;;26.66
80537;BMP280;69867;47.074;15.404;2023-07-31T06:04:03;97378.63;;;26.94
80537;BMP280;69867;47.074;15.404;2023-07-31T06:06:29;97378.22;;;27.08
80537;BMP280;69867;47.074;15.404;2023-07-31T06:08:54;97386.91;;;27.20
80537;BMP280;69867;47.074;15.404;2023-07-31T06:11:20;97382.25;;;27.22
80537;BMP280;69867;47.074;15.404;2023-07-31T06:13:46;97382.13;;;27.14
80537;BMP280;69867;47.074;15.404;2023-07-31T06:16:11;97378.56;;;27.42
80537;BMP280;69867;47.074;15.404;2023-07-31T06:18:36;97371.47;;;27.14
80537;BMP280;69867;47.074;15.404;2023-07-31T06:21:02;97368.41;;;26.89
80537;BMP280;69867;47.074;15.404;2023-07-31T06:23:27;97363.38;;;26.48
80537;BMP280;69867;47.074;15.404;2023-07-31T06:25:52;97363.38;;;26.67
80537;BMP280;69867;47.074;15.404;2023-07-31T06:28:18;97362.53;;;26.47
80537;BMP280;69867;47.074;15.404;2023-07-31T06:30:43;97369.97;;;26.43
80537;BMP280;69867;47.074;15.404;2023-07-31T06:33:08;97371.50;;;26.65
80537;BMP280;69867;47.074;15.404;2023-07-31T06:35:34;97368.09;;;26.25
80537;BMP280;69867;47.074;15.404;2023-07-31T06:37:59;97377.16;;;26.03
80537;BMP280;69867;47.074;15.404;2023-07-31T06:40:24;97372.31;;;26.27
80537;BMP280;69867;47.074;15.404;2023-07-31T06:42:50;97371.75;;;26.24
80537;BMP280;69867;47.074;15.404;2023-07-31T06:45:15;97370.34;;;26.20
80537;BMP280;69867;47.074;15.404;2023-07-31T06:47:40;97367.53;;;26.21
80537;BMP280;69867;47.074;15.404;2023-07-31T06:50:07;97366.44;;;26.33
80537;BMP280;69867;47.074;15.404;2023-07-31T06:52:32;97363.22;;;25.90
80537;BMP280;69867;47.074;15.404;2023-07-31T06:55:17;97362.69;;;25.96
80537;BMP280;69867;47.074;15.404;2023-07-31T06:57:43;97352.69;;;25.48
80537;BMP280;69867;47.074;15.404;2023-07-31T07:00:08;97358.56;;;25.42
80537;BMP280;69867;47.074;15.404;2023-07-31T07:02:34;97354.78;;;25.44
80537;BMP280;69867;47.074;15.404;2023-07-31T07:04:59;97360.88;;;25.26
80537;BMP280;69867;47.074;15.404;2023-07-31T07:07:25;97357.81;;;25.30
80537;BMP280;69867;47.074;15.404;2023-07-31T07:09:50;97360.91;;;25.05
80537;BMP280;69867;47.074;15.404;2023-07-31T07:12:15;97356.09;;;24.99
80537;BMP280;69867;47.074;15.404;2023-07-31T07:14:41;97359.25;;;25.13
80537;BMP280;69867;47.074;15.404;2023-07-31T07:17:06;97367.06;;;25.05
80537;BMP280;69867;47.074;15.404;2023-07-31T07:19:31;97373.78;;;25.09
80537;BMP280;69867;47.074;15.404;2023-07-31T07:21:57;97378.41;;;25.07
80537;BMP280;69867;47.074;15.404;2023-07-31T07:24:22;97371.59;;;25.14
80537;BMP280;69867;47.074;15.404;2023-07-31T07:26:47;97374.44;;;25.23
80537;BMP280;69867;47.074;15.404;2023-07-31T07:29:13;97377.44;;;25.08
80537;BMP280;69867;47.074;15.404;2023-07-31T07:31:38;97371.53;;;25.05
80537;BMP280;69867;47.074;15.404;2023-07-31T07:34:03;97369.31;;;25.10
80537;BMP280;69867;47.074;15.404;2023-07-31T07:36:28;97359.44;;;25.22
80537;BMP280;69867;47.074;15.404;2023-07-31T07:38:54;97358.06;;;25.27
80537;BMP280;69867;47.074;15.404;2023-07-31T07:41:19;97363.78;;;25.23
80537;BMP280;69867;47.074;15.404;2023-07-31T07:43:44;97360.06;;;25.04
80537;BMP280;69867;47.074;15.404;2023-07-31T07:46:10;97366.78;;;25.08
80537;BMP280;69867;47.074;15.404;2023-07-31T07:48:35;97349.72;;;25.11
80537;BMP280;69867;47.074;15.404;2023-07-31T07:51:01;97350.16;;;24.95
80537;BMP280;69867;47.074;15.404;2023-07-31T07:53:26;97352.84;;;25.16
80537;BMP280;69867;47.074;15.404;2023-07-31T07:55:51;97352.84;;;25.16
80537;BMP280;69867;47.074;15.404;2023-07-31T07:58:17;97343.94;;;25.27
80537;BMP280;69867;47.074;15.404;2023-07-31T08:00:48;97349.53;;;25.24
80537;BMP280;69867;47.074;15.404;2023-07-31T08:03:13;97348.69;;;25.23
80537;BMP280;69867;47.074;15.404;2023-07-31T08:05:39;97353.50;;;25.08
80537;BMP280;69867;47.074;15.404;2023-07-31T08:08:04;97348.09;;;25.19
80537;BMP280;69867;47.074;15.404;2023-07-31T08:10:29;97345.09;;;25.34
80537;BMP280;69867;47.074;15.404;2023-07-31T08:12:55;97343.41;;;25.33
80537;BMP280;69867;47.074;15.404;2023-07-31T08:15:20;97342.28;;;25.35
80537;BMP280;69867;47.074;15.404;2023-07-31T08:17:45;97335.16;;;25.36
80537;BMP280;69867;47.074;15.404;2023-07-31T08:20:11;97334.84;;;25.29
80537;BMP280;69867;47.074;15.404;2023-07-31T08:22:36;97332.19;;;25.29
80537;BMP280;69867;47.074;15.404;2023-07-31T08:25:02;97327.97;;;25.27
80537;BMP280;69867;47.074;15.404;2023-07-31T08:27:27;97330.22;;;25.31
80537;BMP280;69867;47.074;15.404;2023-07-31T08:29:52;97333.78;;;25.41
80537;BMP280;69867;47.074;15.404;2023-07-31T08:32:18;97327.97;;;25.27
80537;BMP280;69867;47.074;15.404;2023-07-31T08:34:43;97331.34;;;25.29
80537;BMP280;69867;47.074;15.404;2023-07-31T08:37:08;97332.53;;;25.45
80537;BMP280;69867;47.074;15.404;2023-07-31T08:39:34;97333.81;;;25.51
80537;BMP280;69867;47.074;15.404;2023-07-31T08:41:59;97337.03;;;25.55
80537;BMP280;69867;47.074;15.404;2023-07-31T08:44:24;97337.06;;;25.64
80537;BMP280;69867;47.074;15.404;2023-07-31T08:46:50;97336.59;;;25.80
80537;BMP280;69867;47.074;15.404;2023-07-31T08:49:17;97330.72;;;25.86
80537;BMP280;69867;47.074;15.404;2023-07-31T08:51:43;97327.66;;;25.91
80537;BMP280;69867;47.074;15.404;2023-07-31T08:54:09;97327.91;;;25.88
80537;BMP280;69867;47.074;15.404;2023-07-31T08:56:35;97334.78;;;25.80
80537;BMP280;69867;47.074;15.404;2023-07-31T08:59:02;97334.38;;;25.95
80537;BMP280;69867;47.074;15.404;2023-07-31T09:01:29;97328.75;;;25.88
80537;BMP280;69867;47.074;15.404;2023-07-31T09:03:55;97325.13;;;25.99
80537;BMP280;69867;47.074;15.404;2023-07-31T09:06:22;97326.31;;;26.15
80537;BMP280;69867;47.074;15.404;2023-07-31T09:08:49;97326.88;;;26.29
80537;BMP280;69867;47.074;15.404;2023-07-31T09:11:15;97334.75;;;26.40
80537;BMP280;69867;47.074;15.404;2023-07-31T09:13:41;97325.22;;;26.37
80537;BMP280;69867;47.074;15.404;2023-07-31T09:16:08;97331.97;;;26.41
80537;BMP280;69867;47.074;15.404;2023-07-31T09:18:53;97321.16;;;26.43
80537;BMP280;69867;47.074;15.404;2023-07-31T09:21:18;97327.19;;;26.35
80537;BMP280;69867;47.074;15.404;2023-07-31T09:23:46;97328.84;;;26.27
80537;BMP280;69867;47.074;15.404;2023-07-31T09:26:11;97317.19;;;26.18
80537;BMP280;69867;47.074;15.404;2023-07-31T09:28:53;97318.50;;;26.33
80537;BMP280;69867;47.074;15.404;2023-07-31T09:31:31;97315.56;;;26.36
80537;BMP280;69867;47.074;15.404;2023-07-31T09:33:57;97313.13;;;26.14
80537;BMP280;69867;47.074;15.404;2023-07-31T09:36:22;97313.13;;;26.14
80537;BMP280;69867;47.074;15.404;2023-07-31T09:38:47;97300.38;;;26.18
80537;BMP280;69867;47.074;15.404;2023-07-31T09:41:13;97308.09;;;26.11
80537;BMP280;69867;47.074;15.404;2023-07-31T09:43:38;97296.59;;;26.30
80537;BMP280;69867;47.074;15.404;2023-07-31T09:46:04;97293.53;;;26.34
80537;BMP280;69867;47.074;15.404;2023-07-31T09:48:38;97288.91;;;26.36
80537;BMP280;69867;47.074;15.404;2023-07-31T09:51:04;97285.94;;;26.49
80537;BMP280;69867;47.074;15.404;2023-07-31T09:53:30;97285.97;;;26.39
80537;BMP280;69867;47.074;15.404;2023-07-31T09:55:57;97285.97;;;26.39
80537;BMP280;69867;47.074;15.404;2023-07-31T09:58:23;97273.19;;;26.43
80537;BMP280;69867;47.074;15.404;2023-07-31T10:00:49;97273.19;;;26.53
80537;BMP280;69867;47.074;15.404;2023-07-31T10:03:15;97281.47;;;26.59
80537;BMP280;69867;47.074;15.404;2023-07-31T10:05:46;97276.81;;;26.71
80537;BMP280;69867;47.074;15.404;2023-07-31T10:08:15;97280.59;;;26.68
80537;BMP280;69867;47.074;15.404;2023-07-31T10:10:43;97272.75;;;26.67
80537;BMP280;69867;47.074;15.404;2023-07-31T10:13:09;97272.75;;;26.67
80537;BMP280;69867;47.074;15.404;2023-07-31T10:15:35;97264.88;;;26.75
80537;BMP280;69867;47.074;15.404;2023-07-31T10:18:01;97259.25;;;26.78
80537;BMP280;69867;47.074;15.404;2023-07-31T10:20:27;97259.25;;;26.78
80537;BMP280;69867;47.074;15.404;2023-07-31T10:22:57;97255.81;;;27.05
80537;BMP280;69867;47.074;15.404;2023-07-31T10:25:23;97251.72;;;27.10
80537;BMP280;69867;47.074;15.404;2023-07-31T10:27:50;97249.41;;;26.88
80537;BMP280;69867;47.074;15.404;2023-07-31T10:30:20;97249.84;;;26.74
80537;BMP280;69867;47.074;15.404;2023-07-31T10:32:46;97249.84;;;26.74
80537;BMP280;69867;47.074;15.404;2023-07-31T10:35:12;97242.78;;;26.92
80537;BMP280;69867;47.074;15.404;2023-07-31T10:37:41;97245.41;;;27.12
80537;BMP280;69867;47.074;15.404;2023-07-31T10:40:18;97235.03;;;27.08
80537;BMP280;69867;47.074;15.404;2023-07-31T10:45:13;97239.66;;;27.06
80537;BMP280;69867;47.074;15.404;2023-07-31T10:47:44;97235.47;;;27.04
80537;BMP280;69867;47.074;15.404;2023-07-31T10:52:37;97247.13;;;26.93
80537;BMP280;69867;47.074;15.404;2023-07-31T10:57:50;97236.84;;;27.08
80537;BMP280;69867;47.074;15.404;2023-07-31T11:00:25;97226.78;;;27.29
80537;BMP280;69867;47.074;15.404;2023-07-31T11:03:16;97228.22;;;27.24
80537;BMP280;69867;47.074;15.404;2023-07-31T11:05:48;97221.91;;;27.52
80537;BMP280;69867;47.074;15.404;2023-07-31T11:08:24;97226.31;;;27.89
80537;BMP280;69867;47.074;15.404;2023-07-31T11:11:13;97226.31;;;27.89
80537;BMP280;69867;47.074;15.404;2023-07-31T11:13:44;97209.47;;;28.67
80537;BMP280;69867;47.074;15.404;2023-07-31T11:16:11;97202.00;;;28.79
80537;BMP280;69867;47.074;15.404;2023-07-31T11:18:39;97205.38;;;28.81
80537;BMP280;69867;47.074;15.404;2023-07-31T11:21:04;97195.63;;;28.72
80537;BMP280;69867;47.074;15.404;2023-07-31T11:23:30;97196.34;;;28.82
80537;BMP280;69867;47.074;15.404;2023-07-31T11:26:00;97192.78;;;28.99
80537;BMP280;69867;47.074;15.404;2023-07-31T11:28:25;97190.47;;;29.05
80537;BMP280;69867;47.074;15.404;2023-07-31T11:30:50;97188.59;;;28.97
80537;BMP280;69867;47.074;15.404;2023-07-31T11:33:16;97185.72;;;28.90
80537;BMP280;69867;47.074;15.404;2023-07-31T11:35:44;97185.25;;;28.69
80537;BMP280;69867;47.074;15.404;2023-07-31T11:38:09;97185.81;;;28.81
80537;BMP280;69867;47.074;15.404;2023-07-31T11:40:44;97178.59;;;28.55
80537;BMP280;69867;47.074;15.404;2023-07-31T11:43:10;97188.28;;;28.74
80537;BMP280;69867;47.074;15.404;2023-07-31T11:45:35;97181.63;;;28.78
80537;BMP280;69867;47.074;15.404;2023-07-31T11:48:01;97171.59;;;28.80
80537;BMP280;69867;47.074;15.404;2023-07-31T11:50:26;97172.66;;;28.61
80537;BMP280;69867;47.074;15.404;2023-07-31T11:52:59;97165.16;;;28.65
80537;BMP280;69867;47.074;15.404;2023-07-31T11:55:26;97164.41;;;28.81
80537;BMP280;69867;47.074;15.404;2023-07-31T11:57:52;97156.22;;;28.82
80537;BMP280;69867;47.074;15.404;2023-07-31T12:00:19;97154.00;;;29.04
80537;BMP280;69867;47.074;15.404;2023-07-31T12:02:45;97146.34;;;29.09
80537;BMP280;69867;47.074;15.404;2023-07-31T12:05:12;97140.41;;;29.39
80537;BMP280;69867;47.074;15.404;2023-07-31T12:07:44;97142.75;;;29.42
80537;BMP280;69867;47.074;15.404;2023-07-31T12:10:10;97149.44;;;29.38
80537;BMP280;69867;47.074;15.404;2023-07-31T12:12:35;97134.50;;;29.19
80537;BMP280;69867;47.074;15.404;2023-07-31T12:15:01;97140.66;;;29.12
80537;BMP280;69867;47.074;15.404;2023-07-31T12:17:26;97130.94;;;29.03
80537;BMP280;69867;47.074;15.404;2023-07-31T12:19:51;97121.25;;;28.76
80537;BMP280;69867;47.074;15.404;2023-07-31T12:22:17;97110.00;;;28.98
80537;BMP280;69867;47.074;15.404;2023-07-31T12:24:43;97117.88;;;28.99
80537;BMP280;69867;47.074;15.404;2023-07-31T12:27:10;97122.84;;;28.86
80537;BMP280;69867;47.074;15.404;2023-07-31T12:29:36;97114.13;;;28.58
80537;BMP280;69867;47.074;15.404;2023-07-31T12:32:01;97106.59;;;28.54
80537;BMP280;69867;47.074;15.404;2023-07-31T12:34:27;97106.03;;;28.68
80537;BMP280;69867;47.074;15.404;2023-07-31T12:36:53;97098.47;;;28.63
80537;BMP280;69867;47.074;15.404;2023-07-31T12:39:19;97095.84;;;28.46
80537;BMP280;69867;47.074;15.404;2023-07-31T12:41:44;97095.84;;;28.46
80537;BMP280;69867;47.074;15.404;2023-07-31T12:44:09;97086.75;;;28.30
80537;BMP280;69867;47.074;15.404;2023-07-31T12:46:35;97082.28;;;28.13
80537;BMP280;69867;47.074;15.404;2023-07-31T12:49:00;97079.88;;;28.02
80537;BMP280;69867;47.074;15.404;2023-07-31T12:51:25;97070.97;;;27.93
80537;BMP280;69867;47.074;15.404;2023-07-31T12:53:51;97078.28;;;27.91
80537;BMP280;69867;47.074;15.404;2023-07-31T12:56:16;97073.72;;;27.84
80537;BMP280;69867;47.074;15.404;2023-07-31T12:58:41;97075.88;;;27.80
80537;BMP280;69867;47.074;15.404;2023-07-31T13:01:07;97062.16;;;27.75
80537;BMP280;69867;47.074;15.404;2023-07-31T13:03:32;97073.06;;;27.82
80537;BMP280;69867;47.074;15.404;2023-07-31T13:05:58;97075.09;;;27.88
80537;BMP280;69867;47.074;15.404;2023-07-31T13:08:23;97076.72;;;27.81
80537;BMP280;69867;47.074;15.404;2023-07-31T13:10:48;97069.91;;;27.86
80537;BMP280;69867;47.074;15.404;2023-07-31T13:13:14;97072.13;;;28.17
80537;BMP280;69867;47.074;15.404;2023-07-31T13:15:39;97058.72;;;28.34
80537;BMP280;69867;47.074;15.404;2023-07-31T13:18:04;97056.47;;;28.56
80537;BMP280;69867;47.074;15.404;2023-07-31T13:20:30;97052.91;;;28.73
80537;BMP280;69867;47.074;15.404;2023-07-31T13:22:55;97056.25;;;28.75
80537;BMP280;69867;47.074;15.404;2023-07-31T13:25:20;97054.66;;;28.56
80537;BMP280;69867;47.074;15.404;2023-07-31T13:27:46;97046.44;;;28.50
80537;BMP280;69867;47.074;15.404;2023-07-31T13:30:11;97046.34;;;28.33
80537;BMP280;69867;47.074;15.404;2023-07-31T13:32:36;97047.50;;;28.05
80537;BMP280;69867;47.074;15.404;2023-07-31T13:35:02;97046.34;;;27.82
80537;BMP280;69867;47.074;15.404;2023-07-31T13:37:27;97060.56;;;27.64
80537;BMP280;69867;47.074;15.404;2023-07-31T13:39:53;97048.44;;;27.70
80537;BMP280;69867;47.074;15.404;2023-07-31T13:42:18;97041.31;;;27.79
80537;BMP280;69867;47.074;15.404;2023-07-31T13:44:43;97031.38;;;27.89
80537;BMP280;69867;47.074;15.404;2023-07-31T13:47:09;97034.72;;;28.17
80537;BMP280;69867;47.074;15.404;2023-07-31T13:49:35;97023.97;;;28.34
80537;BMP280;69867;47.074;15.404;2023-07-31T13:52:00;97023.19;;;28.16
80537;BMP280;69867;47.074;15.404;2023-07-31T13:54:26;97010.84;;;28.15
80537;BMP280;69867;47.074;15.404;2023-07-31T13:56:52;97009.78;;;28.08
80537;BMP280;69867;47.074;15.404;2023-07-31T13:59:18;97017.00;;;28.16
80537;BMP280;69867;47.074;15.404;2023-07-31T14:01:44;97006.50;;;28.14
80537;BMP280;69867;47.074;15.404;2023-07-31T14:04:10;97005.16;;;28.18